sensor_id;sensor_type;location;lat;lon;timestamp;pressure;altitude;pressure_sealevel;temperature;humidity
46598;BME280;32318;48.858;8.252;2022-09-09T00:13:59;99870.94;;;18.68;64.64
46598;BME280;32318;48.858;8.252;2022-09-09T00:22:21;99865.41;;;18.62;65.81
46598;BME280;32318;48.858;8.252;2022-09-09T00:30:31;99860.44;;;18.59;65.51
46598;BME280;32318;48.858;8.252;2022-09-09T00:38:34;99866.75;;;18.53;64.91
46598;BME280;32318;48.858;8.252;2022-09-09T00:54:58;99886.97;;;18.32;65.10
46598;BME280;32318;48.858;8.252;2022-09-09T01:11:24;99932.47;;;18.10;66.37
46598;BME280;32318;48.858;8.252;2022-09-09T01:27:46;99926.41;;;17.57;70.08
46598;BME280;32318;48.858;8.252;2022-09-09T01:44:05;99900.72;;;17.16;70.46
46598;BME280;32318;48.858;8.252;2022-09-09T01:52:05;99889.19;;;17.02;71.42
46598;BME280;32318;48.858;8.252;2022-09-09T02:00:14;99879.66;;;16.99;73.75
46598;BME280;32318;48.858;8.252;2022-09-09T02:08:20;99880.25;;;17.01;72.68
46598;BME280;32318;48.858;8.252;2022-09-09T02:16:32;99870.06;;;17.03;74.34
46598;BME280;32318;48.858;8.252;2022-09-09T02:24:37;99861.31;;;17.15;73.54
46598;BME280;32318;48.858;8.252;2022-09-09T02:32:50;99851.91;;;17.24;74.29
46598;BME280;32318;48.858;8.252;2022-09-09T02:40:52;99863.91;;;17.28;73.47
46598;BME280;32318;48.858;8.252;2022-09-09T02:50:03;99858.97;;;17.25;73.97
46598;BME280;32318;48.858;8.252;2022-09-09T02:57:33;99856.69;;;17.22;72.99
46598;BME280;32318;48.858;8.252;2022-09-09T03:05:34;99869.41;;;17.15;73.55
46598;BME280;32318;48.858;8.252;2022-09-09T03:13:35;99862.13;;;17.15;74.05
46598;BME280;32318;48.858;8.252;2022-09-09T03:21:36;99854.03;;;17.15;73.79
46598;BME280;32318;48.858;8.252;2022-09-09T03:29:36;99865.66;;;17.16;73.71
46598;BME280;32318;48.858;8.252;2022-09-09T03:37:36;99873.34;;;17.12;74.03
46598;BME280;32318;48.858;8.252;2022-09-09T03:45:38;99862.38;;;17.07;73.02
46598;BME280;32318;48.858;8.252;2022-09-09T03:53:39;99859.72;;;17.00;73.58
46598;BME280;32318;48.858;8.252;2022-09-09T04:01:39;99865.31;;;16.92;72.89
46598;BME280;32318;48.858;8.252;2022-09-09T04:09:40;99872.81;;;16.90;74.08
46598;BME280;32318;48.858;8.252;2022-09-09T04:17:40;99874.91;;;16.95;73.78
46598;BME280;32318;48.858;8.252;2022-09-09T04:25:45;99866.75;;;17.01;74.15
46598;BME280;32318;48.858;8.252;2022-09-09T04:33:46;99883.38;;;16.98;74.09
46598;BME280;32318;48.858;8.252;2022-09-09T04:41:47;99886.31;;;16.90;74.04
46598;BME280;32318;48.858;8.252;2022-09-09T04:49:47;99890.44;;;16.92;74.21
46598;BME280;32318;48.858;8.252;2022-09-09T04:57:47;99891.03;;;17.01;73.47
46598;BME280;32318;48.858;8.252;2022-09-09T05:05:48;99896.63;;;17.06;72.81
46598;BME280;32318;48.858;8.252;2022-09-09T05:13:49;99904.09;;;17.04;73.43
46598;BME280;32318;48.858;8.252;2022-09-09T05:21:50;99910.28;;;17.12;73.37
46598;BME280;32318;48.858;8.252;2022-09-09T05:29:50;99916.66;;;17.24;72.79
46598;BME280;32318;48.858;8.252;2022-09-09T05:37:50;99917.06;;;17.28;72.76
46598;BME280;32318;48.858;8.252;2022-09-09T05:46:04;99927.97;;;17.39;72.83
46598;BME280;32318;48.858;8.252;2022-09-09T05:54:05;99920.28;;;17.43;73.01
46598;BME280;32318;48.858;8.252;2022-09-09T06:02:05;99922.72;;;17.51;72.96
46598;BME280;32318;48.858;8.252;2022-09-09T06:10:06;99930.78;;;17.58;73.39
46598;BME280;32318;48.858;8.252;2022-09-09T06:18:07;99933.81;;;17.68;72.77
46598;BME280;32318;48.858;8.252;2022-09-09T06:26:25;99917.34;;;17.77;73.33
46598;BME280;32318;48.858;8.252;2022-09-09T06:34:26;99921.44;;;17.86;72.26
46598;BME280;32318;48.858;8.252;2022-09-09T06:42:26;99927.59;;;17.93;71.73
46598;BME280;32318;48.858;8.252;2022-09-09T06:50:27;99922.22;;;17.93;71.28
46598;BME280;32318;48.858;8.252;2022-09-09T06:58:27;99929.00;;;18.02;70.69
46598;BME280;32318;48.858;8.252;2022-09-09T07:06:33;99935.84;;;18.05;70.84
46598;BME280;32318;48.858;8.252;2022-09-09T07:14:34;99943.38;;;17.96;71.81
46598;BME280;32318;48.858;8.252;2022-09-09T07:22:37;99939.84;;;18.21;71.84
46598;BME280;32318;48.858;8.252;2022-09-09T07:30:37;99940.25;;;18.43;70.81
46598;BME280;32318;48.858;8.252;2022-09-09T07:38:42;99932.91;;;18.69;71.25
46598;BME280;32318;48.858;8.252;2022-09-09T07:46:46;99949.50;;;18.91;69.93
46598;BME280;32318;48.858;8.252;2022-09-09T07:54:47;99950.44;;;19.04;69.41
46598;BME280;32318;48.858;8.252;2022-09-09T08:02:48;99953.81;;;19.18;68.61
46598;BME280;32318;48.858;8.252;2022-09-09T08:10:48;99957.03;;;19.08;68.67
46598;BME280;32318;48.858;8.252;2022-09-09T08:18:50;99975.34;;;18.94;69.01
46598;BME280;32318;48.858;8.252;2022-09-09T08:26:51;99972.19;;;18.90;69.72
46598;BME280;32318;48.858;8.252;2022-09-09T08:34:51;99986.06;;;19.01;68.96
46598;BME280;32318;48.858;8.252;2022-09-09T08:42:53;99989.38;;;19.03;69.32
46598;BME280;32318;48.858;8.252;2022-09-09T08:50:57;100001.53;;;18.93;69.94
46598;BME280;32318;48.858;8.252;2022-09-09T08:59:02;100003.81;;;18.96;69.83
46598;BME280;32318;48.858;8.252;2022-09-09T09:15:28;99986.47;;;19.35;68.62
46598;BME280;32318;48.858;8.252;2022-09-09T09:23:45;99981.22;;;19.40;67.87
46598;BME280;32318;48.858;8.252;2022-09-09T09:31:56;99980.41;;;19.51;67.27
46598;BME280;32318;48.858;8.252;2022-09-09T09:40:13;99980.66;;;19.50;67.74
46598;BME280;32318;48.858;8.252;2022-09-09T09:48:14;99993.38;;;19.49;66.82
46598;BME280;32318;48.858;8.252;2022-09-09T09:56:14;99986.94;;;19.62;66.93
46598;BME280;32318;48.858;8.252;2022-09-09T10:04:20;99988.22;;;19.90;65.56
46598;BME280;32318;48.858;8.252;2022-09-09T10:12:47;99979.66;;;20.05;64.37
46598;BME280;32318;48.858;8.252;2022-09-09T10:21:15;99970.00;;;20.09;64.24
46598;BME280;32318;48.858;8.252;2022-09-09T10:29:59;99967.91;;;20.35;64.78
46598;BME280;32318;48.858;8.252;2022-09-09T11:03:02;99956.97;;;21.06;62.43
46598;BME280;32318;48.858;8.252;2022-09-09T11:11:03;99957.50;;;21.20;60.81
46598;BME280;32318;48.858;8.252;2022-09-09T11:19:21;99954.66;;;20.98;60.99
46598;BME280;32318;48.858;8.252;2022-09-09T11:27:33;99955.38;;;20.81;60.99
46598;BME280;32318;48.858;8.252;2022-09-09T11:43:58;99932.19;;;21.31;57.26
46598;BME280;32318;48.858;8.252;2022-09-09T11:51:58;99917.09;;;21.36;58.02
46598;BME280;32318;48.858;8.252;2022-09-09T11:59:58;99926.53;;;21.62;56.87
46598;BME280;32318;48.858;8.252;2022-09-09T12:08:00;99919.28;;;21.68;56.32
46598;BME280;32318;48.858;8.252;2022-09-09T12:16:02;99915.75;;;21.67;56.02
46598;BME280;32318;48.858;8.252;2022-09-09T12:24:10;99899.66;;;21.49;54.27
46598;BME280;32318;48.858;8.252;2022-09-09T12:32:18;99930.72;;;21.24;58.89
46598;BME280;32318;48.858;8.252;2022-09-09T12:40:27;99921.69;;;20.06;63.09
46598;BME280;32318;48.858;8.252;2022-09-09T12:48:39;99922.13;;;20.03;68.09
46598;BME280;32318;48.858;8.252;2022-09-09T12:56:46;99910.84;;;20.06;68.17
46598;BME280;32318;48.858;8.252;2022-09-09T13:04:48;99894.13;;;20.09;65.57
46598;BME280;32318;48.858;8.252;2022-09-09T13:12:50;99894.47;;;20.25;66.96
46598;BME280;32318;48.858;8.252;2022-09-09T13:20:51;99869.94;;;20.43;65.91
46598;BME280;32318;48.858;8.252;2022-09-09T13:28:53;99869.22;;;20.36;64.66
46598;BME280;32318;48.858;8.252;2022-09-09T13:37:05;99866.72;;;20.58;62.45
46598;BME280;32318;48.858;8.252;2022-09-09T13:45:25;99865.44;;;20.90;60.32
46598;BME280;32318;48.858;8.252;2022-09-09T13:53:29;99866.69;;;21.11;58.77
46598;BME280;32318;48.858;8.252;2022-09-09T14:01:30;99848.59;;;21.34;54.90
46598;BME280;32318;48.858;8.252;2022-09-09T14:09:31;99852.09;;;21.63;53.62
46598;BME280;32318;48.858;8.252;2022-09-09T14:17:31;99850.44;;;21.96;51.78
46598;BME280;32318;48.858;8.252;2022-09-09T14:25:32;99848.13;;;22.05;51.28
46598;BME280;32318;48.858;8.252;2022-09-09T14:33:33;99849.97;;;21.65;52.09
46598;BME280;32318;48.858;8.252;2022-09-09T14:41:35;99864.81;;;21.45;51.85
46598;BME280;32318;48.858;8.252;2022-09-09T14:49:36;99867.44;;;21.23;52.91
46598;BME280;32318;48.858;8.252;2022-09-09T14:57:37;99883.44;;;21.08;53.79
46598;BME280;32318;48.858;8.252;2022-09-09T15:05:39;99909.81;;;20.83;56.61
46598;BME280;32318;48.858;8.252;2022-09-09T15:13:40;99908.56;;;20.62;58.32
46598;BME280;32318;48.858;8.252;2022-09-09T15:21:41;99912.59;;;20.48;59.92
46598;BME280;32318;48.858;8.252;2022-09-09T15:29:41;99932.25;;;20.67;60.15
46598;BME280;32318;48.858;8.252;2022-09-09T15:37:42;99946.56;;;20.38;60.29
46598;BME280;32318;48.858;8.252;2022-09-09T15:45:42;99939.81;;;19.94;60.90
46598;BME280;32318;48.858;8.252;2022-09-09T15:53:42;99956.59;;;19.72;61.67
46598;BME280;32318;48.858;8.252;2022-09-09T16:01:43;99946.28;;;19.50;61.89
46598;BME280;32318;48.858;8.252;2022-09-09T16:09:44;99939.75;;;19.39;61.71
46598;BME280;32318;48.858;8.252;2022-09-09T16:17:44;99956.94;;;19.33;62.66
46598;BME280;32318;48.858;8.252;2022-09-09T16:25:53;99941.81;;;19.25;63.92
46598;BME280;32318;48.858;8.252;2022-09-09T16:33:53;99947.78;;;19.16;63.98
46598;BME280;32318;48.858;8.252;2022-09-09T16:41:55;99949.81;;;19.20;64.64
46598;BME280;32318;48.858;8.252;2022-09-09T16:49:57;99971.91;;;19.17;65.27
46598;BME280;32318;48.858;8.252;2022-09-09T16:57:57;99959.84;;;19.01;65.83
46598;BME280;32318;48.858;8.252;2022-09-09T17:05:58;99965.25;;;19.20;66.32
46598;BME280;32318;48.858;8.252;2022-09-09T17:14:02;99957.56;;;19.17;67.15
46598;BME280;32318;48.858;8.252;2022-09-09T17:22:03;99956.66;;;19.23;66.82
46598;BME280;32318;48.858;8.252;2022-09-09T17:30:04;99965.75;;;19.10;67.62
46598;BME280;32318;48.858;8.252;2022-09-09T17:38:04;99965.31;;;18.94;68.57
46598;BME280;32318;48.858;8.252;2022-09-09T17:46:16;99967.75;;;18.77;68.94
46598;BME280;32318;48.858;8.252;2022-09-09T17:54:18;99980.63;;;18.63;70.04
46598;BME280;32318;48.858;8.252;2022-09-09T18:02:19;99979.72;;;18.70;69.93
46598;BME280;32318;48.858;8.252;2022-09-09T18:10:19;99981.22;;;18.65;69.60
46598;BME280;32318;48.858;8.252;2022-09-09T18:18:20;99991.22;;;18.40;69.85
46598;BME280;32318;48.858;8.252;2022-09-09T18:26:23;99997.97;;;18.30;70.15
46598;BME280;32318;48.858;8.252;2022-09-09T18:34:24;100003.06;;;18.20;70.87
46598;BME280;32318;48.858;8.252;2022-09-09T18:42:27;100006.81;;;18.19;70.55
46598;BME280;32318;48.858;8.252;2022-09-09T18:50:27;100001.84;;;18.16;70.63
46598;BME280;32318;48.858;8.252;2022-09-09T18:58:28;100003.06;;;18.20;70.91
46598;BME280;32318;48.858;8.252;2022-09-09T19:06:31;100023.50;;;18.09;70.04
46598;BME280;32318;48.858;8.252;2022-09-09T19:14:31;100003.56;;;18.03;69.90
46598;BME280;32318;48.858;8.252;2022-09-09T19:22:31;100023.56;;;18.02;68.80
46598;BME280;32318;48.858;8.252;2022-09-09T19:30:35;100021.28;;;17.99;68.63
46598;BME280;32318;48.858;8.252;2022-09-09T19:38:35;100018.97;;;18.03;68.42
46598;BME280;32318;48.858;8.252;2022-09-09T19:46:36;100025.25;;;17.97;68.09
46598;BME280;32318;48.858;8.252;2022-09-09T19:54:37;100033.97;;;17.92;68.07
46598;BME280;32318;48.858;8.252;2022-09-09T20:02:38;100040.63;;;17.96;67.55
46598;BME280;32318;48.858;8.252;2022-09-09T20:10:38;100039.38;;;17.99;67.61
46598;BME280;32318;48.858;8.252;2022-09-09T20:18:41;100032.09;;;17.99;67.47
46598;BME280;32318;48.858;8.252;2022-09-09T20:26:43;100045.22;;;17.96;67.23
46598;BME280;32318;48.858;8.252;2022-09-09T20:34:43;100051.63;;;17.95;67.47
46598;BME280;32318;48.858;8.252;2022-09-09T20:42:46;100052.66;;;17.94;67.30
46598;BME280;32318;48.858;8.252;2022-09-09T20:50:46;100048.75;;;17.90;67.82
46598;BME280;32318;48.858;8.252;2022-09-09T20:58:47;100036.75;;;17.79;69.60
46598;BME280;32318;48.858;8.252;2022-09-09T21:06:48;100040.50;;;17.78;69.64
46598;BME280;32318;48.858;8.252;2022-09-09T21:14:49;100052.38;;;17.77;70.21
46598;BME280;32318;48.858;8.252;2022-09-09T21:23:05;100106.00;;;17.66;69.91
46598;BME280;32318;48.858;8.252;2022-09-09T21:31:06;100101.50;;;17.40;72.95
46598;BME280;32318;48.858;8.252;2022-09-09T21:39:06;100108.41;;;17.29;72.68
46598;BME280;32318;48.858;8.252;2022-09-09T21:47:06;100109.44;;;17.21;72.68
46598;BME280;32318;48.858;8.252;2022-09-09T21:55:07;100107.00;;;17.06;72.93
46598;BME280;32318;48.858;8.252;2022-09-09T22:03:09;100109.25;;;16.83;73.57
46598;BME280;32318;48.858;8.252;2022-09-09T22:11:14;100111.78;;;16.77;72.56
46598;BME280;32318;48.858;8.252;2022-09-09T22:19:15;100115.72;;;16.68;74.45
46598;BME280;32318;48.858;8.252;2022-09-09T22:27:15;100119.44;;;16.54;74.23
46598;BME280;32318;48.858;8.252;2022-09-09T22:35:15;100090.63;;;16.34;74.05
46598;BME280;32318;48.858;8.252;2022-09-09T22:43:18;100085.44;;;16.26;74.00
46598;BME280;32318;48.858;8.252;2022-09-09T22:51:19;100071.34;;;16.37;74.27
46598;BME280;32318;48.858;8.252;2022-09-09T22:59:19;100092.91;;;16.51;73.67
46598;BME280;32318;48.858;8.252;2022-09-09T23:07:20;100090.84;;;16.59;73.55
46598;BME280;32318;48.858;8.252;2022-09-09T23:15:22;100089.78;;;16.74;74.38
46598;BME280;32318;48.858;8.252;2022-09-09T23:23:23;100092.47;;;16.67;74.23
46598;BME280;32318;48.858;8.252;2022-09-09T23:31:27;100088.78;;;16.55;74.55
46598;BME280;32318;48.858;8.252;2022-09-09T23:39:28;100094.97;;;16.49;74.26
46598;BME280;32318;48.858;8.252;2022-09-09T23:47:28;100095.81;;;16.49;75.43
46598;BME280;32318;48.858;8.252;2022-09-09T23:55:28;100104.72;;;16.50;76.79
